»·PEaware :: N722MA KRNM-KEMT

N722MA :: KRNM-KEMT

FLIGHT INFORMATION

Flight Status: Arrived
Operator: Privately registered:
United States
More flights under this callsign
Pilot: Shane T. (23547)
Aircraft: CESSNA 172 SKYHAWK
(C172)
More flights by this aircraft type
Origin: KRNM Ramona
United States
Destination: KEMT El Monte
United States
More flights between these airports :: More routes between these airports
Route: +ROBNN V208 OCN V23 DANAH V363 POM
File this flight plan on PilotEdge
Remarks:
Altitude:
(Current/Filed)
4,000ft
Speed:
(Current/Filed)
120kts
Departed: 08-Sep-20 05:34 PM
Arrived: 08-Sep-20 06:16 PM
Distance/Time
Traveled:
84nm/0:42
Distance/Time
To Go:
Arrived

Flight Plot

Page will automatically refresh every two minutes.


Map Options




Map Legend


Flown Route
Filed Route
Departure Airport
Arrival Airport
Navaid (VOR, NDB)
Fix

Horizontal Profiles

Position Reports

Time Latitude Longitude Heading Altitude Ground
Speed
08-Sep-20 17:08 33.039293 -116.908028 275 1390ft 0kts
08-Sep-20 17:09 33.039293 -116.908028 275 1390ft 0kts
08-Sep-20 17:10 33.039293 -116.908028 275 1390ft 0kts
08-Sep-20 17:11 33.039293 -116.908028 275 1390ft 0kts
08-Sep-20 17:12 33.039293 -116.908028 275 1390ft 0kts
08-Sep-20 17:13 33.039293 -116.908028 275 1390ft 0kts
08-Sep-20 17:14 33.039293 -116.908029 275 1390ft 0kts
08-Sep-20 17:15 33.039293 -116.908029 275 1390ft 0kts
08-Sep-20 17:16 33.039293 -116.908029 275 1390ft 0kts
08-Sep-20 17:17 33.039293 -116.908029 275 1390ft 0kts
08-Sep-20 17:18 33.039293 -116.908029 275 1390ft 0kts
08-Sep-20 17:19 33.039293 -116.908029 275 1390ft 0kts
08-Sep-20 17:20 33.039293 -116.908029 275 1390ft 0kts
08-Sep-20 17:21 33.039293 -116.908029 275 1390ft 0kts
08-Sep-20 17:22 33.039293 -116.908029 275 1390ft 0kts
08-Sep-20 17:23 33.039293 -116.908029 275 1390ft 0kts
08-Sep-20 17:24 33.039293 -116.908029 275 1390ft 0kts
08-Sep-20 17:25 33.039293 -116.908029 275 1390ft 0kts
08-Sep-20 17:26 33.039293 -116.908029 275 1390ft 0kts
08-Sep-20 17:27 33.039293 -116.908029 275 1390ft 0kts
08-Sep-20 17:28 33.038723 -116.907486 86 1389ft 9kts
08-Sep-20 17:29 33.038645 -116.906955 210 1389ft 0kts
08-Sep-20 17:30 33.038645 -116.906955 210 1389ft 0kts
08-Sep-20 17:31 33.038644 -116.906955 209 1389ft 0kts
08-Sep-20 17:32 33.038645 -116.906955 210 1389ft 0kts
08-Sep-20 17:33 33.040568 -116.922949 289 1842ft 79kts
08-Sep-20 17:34 33.060685 -116.943933 316 3078ft 79kts
08-Sep-20 17:35 33.080002 -116.966919 318 4207ft 81kts
08-Sep-20 17:36 33.101107 -116.989652 312 5393ft 83kts
08-Sep-20 17:37 33.116432 -117.020408 286 6214ft 112kts
08-Sep-20 17:38 33.128564 -117.070012 286 6253ft 126kts
08-Sep-20 17:39 33.141802 -117.120627 288 6183ft 124kts
08-Sep-20 17:40 33.157823 -117.168551 293 6197ft 121kts
08-Sep-20 17:41 33.173323 -117.213014 292 6193ft 121kts
08-Sep-20 17:42 33.189455 -117.260645 292 6190ft 121kts
08-Sep-20 17:43 33.206798 -117.306836 294 6190ft 121kts
08-Sep-20 17:44 33.225150 -117.351886 296 6189ft 121kts
08-Sep-20 17:45 33.240330 -117.398570 288 6197ft 121kts
08-Sep-20 17:46 33.265816 -117.438805 311 6212ft 121kts
08-Sep-20 17:47 33.294224 -117.477404 312 6211ft 121kts
08-Sep-20 17:48 33.324120 -117.514073 315 6216ft 121kts
08-Sep-20 17:49 33.354923 -117.548873 317 6223ft 121kts
08-Sep-20 17:50 33.385454 -117.584005 317 6233ft 121kts
08-Sep-20 17:51 33.416808 -117.619128 313 6248ft 121kts
08-Sep-20 17:52 33.445398 -117.655170 313 6252ft 121kts
08-Sep-20 17:53 33.473180 -117.691161 312 6259ft 121kts
08-Sep-20 17:54 33.509301 -117.703014 350 6254ft 121kts
08-Sep-20 17:55 33.546224 -117.710525 349 6257ft 121kts
08-Sep-20 17:56 33.583291 -117.718063 348 6265ft 121kts
08-Sep-20 17:57 33.620390 -117.725463 353 6273ft 121kts
08-Sep-20 17:58 33.659202 -117.730665 353 6264ft 121kts
08-Sep-20 17:59 33.696644 -117.739857 337 6266ft 122kts
08-Sep-20 18:00 33.731474 -117.754418 338 6282ft 121kts
08-Sep-20 18:01 33.766482 -117.771727 341 6287ft 121kts
08-Sep-20 18:02 33.805244 -117.777683 353 6283ft 122kts
08-Sep-20 18:03 33.845747 -117.783824 352 6245ft 123kts
08-Sep-20 18:04 33.887298 -117.788031 356 6253ft 120kts
08-Sep-20 18:05 33.928424 -117.788461 2 6317ft 120kts
08-Sep-20 18:06 33.969866 -117.790259 329 6179ft 123kts
08-Sep-20 18:08 33.990275 -117.827801 299 6035ft 120kts
08-Sep-20 18:09 34.008482 -117.865741 297 5473ft 110kts
08-Sep-20 18:10 34.026559 -117.899152 300 4594ft 110kts
08-Sep-20 18:11 34.044971 -117.933049 298 3612ft 112kts
08-Sep-20 18:12 34.062355 -117.967927 293 2206ft 109kts
08-Sep-20 18:13 34.074869 -118.001506 286 1224ft 93kts
08-Sep-20 18:14 34.098271 -118.009779 288 1048ft 75kts
08-Sep-20 18:15 34.094864 -118.029549 211 543ft 59kts
08-Sep-20 18:16 34.085283 -118.034645 143 287ft 0kts
08-Sep-20 18:17 34.085278 -118.033730 89 288ft 10kts
08-Sep-20 18:18 34.085199 -118.033334 12 289ft 0kts
08-Sep-20 18:19 34.085199 -118.033334 12 289ft 0kts
08-Sep-20 18:20 34.085199 -118.033334 12 289ft 0kts
08-Sep-20 18:21 34.085199 -118.033334 12 289ft 0kts
08-Sep-20 18:22 34.085199 -118.033334 12 289ft 0kts
08-Sep-20 18:23 34.085199 -118.033334 12 289ft 0kts

Navigation Log

Ident Type
Flight plan parsing failed, navigation log unavailable